Maersk Valencia — 9V5028 — position and weather

sailwx.info

Track history (hours):
 
Tides and Currents Weather Stations Pressure Air Temp Water Temp Dewpoint Dewpoint Depression Visibility Wind Speed Wind Dir Waves Ship Positions

Maersk Valencia

Last reported at 2018-Jun-20 08:06 UTC. Time now 2018-Jun-24 16:44 UTC.
Position N 28°13' W 013°22'.

Length 175 m; draft 8.9 m.

Type: Cargo ship. MMSI: 563003400.

Date/timePositionNaut miles runAvg speedWind from/ knotsBaromVisibWave heightAir tempDewpointWater temp
2018-Jun-20 08:06N 28°13' W 013°22'216.3
2018-Jun-20 07:59N 28°12' W 013°23'916.3
2018-Jun-20 07:26N 28°04' W 013°29'614.2
2018-Jun-20 07:00N 27°59' W 013°33'510.5
2018-Jun-20 06:29N 27°55' W 013°36'510.5
2018-Jun-20 06:00N 27°50' W 013°39'510.5
2018-Jun-20 05:30N 27°46' W 013°42'510.7
2018-Jun-20 05:00N 27°42' W 013°46'510.5
2018-Jun-20 04:30N 27°38' W 013°50'510.1
2018-Jun-20 04:00N 27°34' W 013°53'510.2
2018-Jun-20 03:30N 27°30' W 013°57'610.1
2018-Jun-20 02:54N 27°25' W 014°01'410.1
2018-Jun-20 02:30N 27°22' W 014°04'  
Track history (hours):
 
Tides and Currents Weather Stations Pressure Air Temp Water Temp Dewpoint Dewpoint Depression Visibility Wind Speed Wind Dir Waves Ship Positions

Maersk Valencia

Last reported at 2018-Jun-20 08:06 UTC. Time now 2018-Jun-24 16:44 UTC.
Position N 28°13' W 013°22'.

Length 175 m; draft 8.9 m.

Type: Cargo ship. MMSI: 563003400.

Date/timePositionNaut miles runAvg speedWind from/ knotsBaromVisibWave heightAir tempDewpointWater temp
2018-Jun-20 08:06N 28°13' W 013°22'216.3
2018-Jun-20 07:59N 28°12' W 013°23'916.3
2018-Jun-20 07:26N 28°04' W 013°29'614.2
2018-Jun-20 07:00N 27°59' W 013°33'510.5
2018-Jun-20 06:29N 27°55' W 013°36'510.5
2018-Jun-20 06:00N 27°50' W 013°39'510.5
2018-Jun-20 05:30N 27°46' W 013°42'510.7
2018-Jun-20 05:00N 27°42' W 013°46'510.5
2018-Jun-20 04:30N 27°38' W 013°50'510.1
2018-Jun-20 04:00N 27°34' W 013°53'510.2
2018-Jun-20 03:30N 27°30' W 013°57'610.1
2018-Jun-20 02:54N 27°25' W 014°01'410.1
2018-Jun-20 02:30N 27°22' W 014°04'  

Dump ship's entire track history